Wichita, KS

7:19 PM CDT on July 27, 2016 (GMT -0500)
Indian Hills | | Change Station

Elev 1329 ft 37.72 °N, 97.37 °W | Updated 4 minutes ago

Mostly Cloudy
Mostly Cloudy
91.0 °F
Feels Like 102 °F
N
3.2
Wind Variable Wind from ESE

Today
High -- | Low -- °F
--% Chance of Precip.
Yesterday
High -- | Low -- °F
Precip. -- in
Pressure 29.87 in
Visibility 10.0 miles
Clouds Few 5000 ft
Few 15000 ft
Scattered Clouds 18000 ft
Mostly Cloudy 22000 ft
Heat Index 102 °F
Dew Point 75 °F
Humidity 59%
Rainfall 0.00 in
Snow Depth Not available.
6:29 AM 8:41 PM
Last Quarter, 38% visible
METAR KICT 272353Z 06007KT 10SM FEW050 FEW150 SCT180 BKN220 33/20 A2992 RMK AO2 SLP114 T03330200 10350 20311 58008
Pressure 29.87 in
Visibility 10.0 miles
Clouds Few 5000 ft
Few 15000 ft
Scattered Clouds 18000 ft
Mostly Cloudy 22000 ft
Heat Index 102 °F
Dew Point 75 °F
Humidity 59%
Rainfall 0.00 in
Snow Depth Not available.
6:29 AM 8:41 PM
Last Quarter, 38% visible
METAR KICT 272353Z 06007KT 10SM FEW050 FEW150 SCT180 BKN220 33/20 A2992 RMK AO2 SLP114 T03330200 10350 20311 58008

10-Day Weather Forecast

Almanac

Astronomy

Jul. 27, 2016 Rise Set
Actual Time
Civil Twilight
Nautical Twilight
Astronomical Twilight
Moon
Length of Visible Light
Length of Day
Tomorrow will be .
, % of the Moon is Illuminated

Today's Extremes

State Highs State Lows

Community

WunderPhotos

Upload Photos

1,927,974 photos uploaded!

WunderBlog® & News

Nearby

Air Quality

  Air Quality AQ Index Pollutant
Not available.

Snow Depth

Station Depth Elevation

Earthquake Activity

City Distance Mag. Time & Date
Minimum magnitude displayed is 2.5.

Coastal Water Temperatures

Place Temperature

Stations

Nearby Weather Stations

Station Location Temp. Windchill Dew Point Humidity Wind Precip. Elev Updated Type
                   

Watches & Warnings

There are currently no watches in effect.